Weather at Key West International Airport

Public forecast

Using degrees Fahrenheit for public forecast. Weather courtesy of forecast.io.

Current aviation weather report (METAR) for Key West International Airport

Retrieved 2021/05/10 23:53 UTC (48 minutes ago):

KEYW 102353Z 10008KT 10SM CLR 28/22 A3002 RMK AO2 SLP164 T02780217 10294 20278 55000

Aviation forecast (TAF) for Key West International Airport

Retrieved 2021-05-11 00:36 UTC (5 minutes ago):

TAF KEYW 102335Z 1100/1124 12009KT P6SM FEW025